Terminal Aerodrome Forecast
Issued by NWS Albuquerque, NM

Home | Current Version | Previous Version | Text Only | Print | Product List | Glossary On
Versions: 1 2 3 4 5 6 7 8 9 10 11 12 13 14 15 16
000
FTUS45 KABQ 171100
TAFABQ
TAF
KABQ 171128Z 1712/1812 09012KT P6SM FEW120
     FM171500 15007KT P6SM FEW050
     FM172000 21010KT P6SM FEW100
     FM180200 15008KT P6SM FEW200=

USA.gov is the U.S. government's official web portal to all federal, state and local government web resources and services.